createdAt,value
2023-04-11T00:01:49.900Z,28.05
2023-04-11T00:04:17.622Z,22.80
2023-04-11T00:06:45.239Z,26.70
2023-04-11T00:09:12.517Z,35.80
2023-04-11T00:11:40.093Z,23.48
2023-04-11T00:14:08.837Z,18.77
2023-04-11T00:16:36.265Z,23.67
2023-04-11T00:19:03.608Z,33.47
2023-04-11T00:21:31.590Z,26.35
2023-04-11T00:23:59.031Z,20.38
2023-04-11T00:26:26.310Z,17.63
2023-04-11T00:28:53.451Z,19.10
2023-04-11T00:31:20.992Z,14.98
2023-04-11T00:33:47.993Z,19.25
2023-04-11T00:36:15.365Z,15.90
2023-04-11T00:38:42.617Z,14.98
2023-04-11T00:41:10.331Z,19.15
2023-04-11T00:43:37.483Z,17.13
2023-04-11T00:46:05.157Z,17.65
2023-04-11T00:48:32.437Z,23.95
2023-04-11T00:50:59.964Z,30.15
2023-04-11T00:53:32.419Z,23.23
2023-04-11T00:56:00.608Z,20.75
2023-04-11T00:58:28.532Z,20.58
2023-04-11T01:00:56.143Z,20.48
2023-04-11T01:03:23.743Z,26.90
2023-04-11T01:05:53.791Z,20.30
2023-04-11T01:08:22.442Z,23.08
2023-04-11T01:10:50.542Z,17.88
2023-04-11T01:13:20.609Z,25.50
2023-04-11T01:15:48.259Z,19.77
2023-04-11T01:18:15.515Z,22.48
2023-04-11T01:20:43.036Z,19.92
2023-04-11T01:23:11.300Z,19.95
2023-04-11T01:25:38.551Z,17.05
2023-04-11T01:28:08.760Z,20.58
2023-04-11T01:30:36.111Z,27.17
2023-04-11T01:33:03.270Z,31.63
2023-04-11T01:35:30.956Z,31.08
2023-04-11T01:37:59.156Z,25.48
2023-04-11T01:40:27.925Z,21.20
2023-04-11T01:42:55.369Z,16.67
2023-04-11T01:45:23.637Z,15.30
2023-04-11T01:47:52.012Z,18.40
2023-04-11T01:50:19.433Z,16.35
2023-04-11T01:52:48.444Z,16.95
2023-04-11T01:55:16.579Z,17.10
2023-04-11T01:57:44.311Z,18.92
2023-04-11T02:00:12.239Z,15.00
2023-04-11T02:02:43.029Z,21.10
2023-04-11T02:05:11.022Z,17.75
2023-04-11T02:07:38.175Z,21.13
2023-04-11T02:10:06.205Z,18.92
2023-04-11T02:12:33.563Z,20.95
2023-04-11T02:15:00.962Z,15.40
2023-04-11T02:17:31.297Z,14.55
2023-04-11T02:19:58.768Z,18.60
2023-04-11T02:22:27.277Z,16.92
2023-04-11T02:24:54.524Z,15.60
2023-04-11T02:27:21.597Z,18.58
2023-04-11T02:29:48.897Z,22.67
2023-04-11T02:32:16.518Z,19.08
2023-04-11T02:34:46.528Z,21.05
2023-04-11T02:37:13.487Z,20.23
2023-04-11T02:39:40.811Z,19.60
2023-04-11T02:42:07.847Z,17.33
2023-04-11T02:44:35.140Z,18.63
2023-04-11T02:47:02.453Z,16.25
2023-04-11T02:49:30.543Z,17.52
2023-04-11T02:51:58.560Z,18.00
2023-04-11T02:54:26.039Z,16.63
2023-04-11T02:56:55.858Z,20.73
2023-04-11T02:59:23.560Z,20.35
2023-04-11T03:01:50.714Z,22.23
2023-04-11T03:04:18.588Z,21.30
2023-04-11T03:06:57.076Z,23.27
2023-04-11T03:09:25.637Z,20.67
2023-04-11T03:11:52.915Z,17.40
2023-04-11T03:14:23.041Z,21.80
2023-04-11T03:16:50.040Z,34.80
2023-04-11T03:19:17.657Z,31.17
2023-04-11T03:21:44.743Z,25.52
2023-04-11T03:24:12.864Z,20.80
2023-04-11T03:26:41.368Z,23.13
2023-04-11T03:29:12.024Z,25.63
2023-04-11T03:31:51.376Z,23.13
2023-04-11T03:34:19.402Z,22.75
2023-04-11T03:36:46.403Z,36.90
2023-04-11T03:39:14.277Z,25.50
2023-04-11T03:41:41.695Z,29.98
2023-04-11T03:44:10.878Z,40.88
2023-04-11T03:46:38.477Z,24.23
2023-04-11T03:49:06.030Z,25.13
2023-04-11T03:51:33.695Z,25.55
2023-04-11T03:54:07.296Z,26.10
2023-04-11T03:56:38.724Z,26.08
2023-04-11T03:59:09.208Z,26.73
2023-04-11T04:01:48.471Z,30.00
2023-04-11T04:04:16.023Z,24.67
2023-04-11T04:06:47.658Z,26.27
2023-04-11T04:09:15.571Z,26.92
2023-04-11T04:11:48.155Z,26.42
2023-04-11T04:14:16.872Z,23.90
2023-04-11T04:16:44.355Z,23.35
2023-04-11T04:19:13.856Z,27.48
2023-04-11T04:21:45.932Z,21.05
2023-04-11T04:24:15.903Z,21.85
2023-04-11T04:27:00.983Z,21.13
2023-04-11T04:29:49.517Z,17.63
2023-04-11T04:32:28.893Z,29.00
2023-04-11T04:35:01.622Z,16.75
2023-04-11T04:37:34.338Z,20.35
2023-04-11T04:40:14.191Z,15.93
2023-04-11T04:42:58.674Z,20.38
2023-04-11T04:45:52.579Z,19.17
2023-04-11T04:48:25.782Z,18.83
2023-04-11T04:50:53.669Z,17.30
2023-04-11T04:53:21.201Z,16.60
2023-04-11T04:55:54.124Z,13.50
2023-04-11T04:58:22.062Z,13.98
2023-04-11T05:00:58.247Z,14.52
2023-04-11T05:03:28.663Z,12.10
2023-04-11T05:05:56.860Z,12.40
2023-04-11T05:08:24.722Z,12.75
2023-04-11T05:10:56.436Z,11.60
2023-04-11T05:13:24.418Z,15.25
2023-04-11T05:15:52.137Z,11.57
2023-04-11T05:18:21.008Z,11.52
2023-04-11T05:20:48.576Z,11.43
2023-04-11T05:23:21.231Z,12.73
2023-04-11T05:25:50.939Z,12.38
2023-04-11T05:28:18.002Z,12.73
2023-04-11T05:30:45.652Z,9.77
2023-04-11T05:33:15.105Z,11.75
2023-04-11T05:35:44.357Z,12.27
2023-04-11T05:38:11.633Z,11.40
2023-04-11T05:40:40.331Z,10.52
2023-04-11T05:43:08.425Z,9.52
2023-04-11T05:45:35.980Z,11.20
2023-04-11T05:48:07.818Z,9.82
2023-04-11T05:50:36.278Z,15.48
2023-04-11T05:53:03.555Z,18.27
2023-04-11T05:55:31.807Z,12.80
2023-04-11T05:57:59.056Z,11.63
2023-04-11T06:00:30.750Z,12.10
2023-04-11T06:02:58.720Z,19.10
2023-04-11T06:05:26.879Z,13.27
2023-04-11T06:07:56.578Z,10.52
2023-04-11T06:10:24.162Z,10.57
2023-04-11T06:12:51.611Z,15.93
2023-04-11T06:15:19.147Z,20.10
2023-04-11T06:17:46.307Z,12.45
2023-04-11T06:20:16.811Z,12.60
2023-04-11T06:22:44.189Z,19.73
2023-04-11T06:25:11.793Z,16.73
2023-04-11T06:27:39.047Z,17.13
2023-04-11T06:30:09.713Z,22.33
2023-04-11T06:32:36.930Z,36.50
2023-04-11T06:35:05.074Z,16.50
2023-04-11T06:37:32.218Z,13.95
2023-04-11T06:40:00.506Z,12.93
2023-04-11T06:42:27.883Z,13.60
2023-04-11T06:44:56.235Z,13.88
2023-04-11T06:47:25.492Z,11.90
2023-04-11T06:49:53.180Z,14.75
2023-04-11T06:52:22.060Z,15.73
2023-04-11T06:54:49.449Z,13.77
2023-04-11T06:57:17.888Z,11.90
2023-04-11T06:59:45.232Z,12.77
2023-04-11T07:02:12.378Z,15.63
2023-04-11T07:04:40.033Z,14.65
2023-04-11T07:07:10.134Z,11.00
2023-04-11T07:09:37.572Z,12.10
2023-04-11T07:12:05.394Z,10.35
2023-04-11T07:14:32.900Z,16.70
2023-04-11T07:17:01.390Z,10.98
2023-04-11T07:19:28.867Z,10.23
2023-04-11T07:21:57.180Z,15.70
2023-04-11T07:24:24.506Z,11.30
2023-04-11T07:26:53.412Z,14.60
2023-04-11T07:29:21.803Z,12.45
2023-04-11T07:31:49.670Z,11.60
2023-04-11T07:34:17.488Z,12.68
2023-04-11T07:36:44.543Z,11.77
2023-04-11T07:39:14.227Z,14.63
2023-04-11T07:41:41.217Z,12.57
2023-04-11T07:44:09.514Z,13.68
2023-04-11T07:46:36.833Z,11.38
2023-04-11T07:49:04.169Z,13.43
2023-04-11T07:51:31.356Z,8.02
2023-04-11T07:53:58.906Z,9.70
2023-04-11T07:56:26.124Z,12.95
2023-04-11T07:58:54.548Z,14.18
2023-04-11T08:01:26.903Z,10.32
2023-04-11T08:03:56.033Z,14.75
2023-04-11T08:06:23.663Z,10.45
2023-04-11T08:08:51.374Z,10.73
2023-04-11T08:11:18.516Z,12.27
2023-04-11T08:13:46.325Z,13.15
2023-04-11T08:16:18.103Z,16.98
2023-04-11T08:18:48.521Z,9.90
2023-04-11T08:21:16.806Z,11.48
2023-04-11T08:23:44.110Z,7.63
2023-04-11T08:26:12.897Z,12.27
2023-04-11T08:28:42.684Z,15.27
2023-04-11T08:31:13.052Z,9.18
2023-04-11T08:33:41.239Z,12.05
2023-04-11T08:36:10.115Z,8.13
2023-04-11T08:38:41.386Z,15.18
2023-04-11T08:41:08.664Z,14.20
2023-04-11T08:43:36.984Z,11.88
2023-04-11T08:46:04.165Z,10.85
2023-04-11T08:48:32.457Z,12.07
2023-04-11T08:50:59.820Z,10.70
2023-04-11T08:53:29.204Z,8.35
2023-04-11T08:55:56.688Z,8.18
2023-04-11T08:58:24.014Z,10.32
2023-04-11T09:00:51.182Z,11.18
2023-04-11T09:03:19.188Z,12.88
2023-04-11T09:05:47.075Z,9.70
2023-04-11T09:08:16.046Z,7.50
2023-04-11T09:10:46.324Z,6.88
2023-04-11T09:13:26.012Z,6.85
2023-04-11T09:16:15.021Z,12.93
2023-04-11T09:18:46.942Z,10.75
2023-04-11T09:21:16.074Z,10.02
2023-04-11T09:23:43.858Z,11.32
2023-04-11T09:26:12.820Z,9.88
2023-04-11T09:28:50.572Z,9.57
2023-04-11T09:31:17.615Z,11.07
2023-04-11T09:33:56.415Z,7.75
2023-04-11T09:36:25.373Z,7.65
2023-04-11T09:38:53.902Z,10.55
2023-04-11T09:41:37.046Z,4.90
2023-04-11T09:44:04.719Z,11.35
2023-04-11T09:46:31.849Z,7.22
2023-04-11T09:49:01.620Z,6.40
2023-04-11T09:51:36.351Z,5.80
2023-04-11T09:54:05.861Z,8.60
2023-04-11T09:56:36.689Z,6.82
2023-04-11T09:59:05.224Z,8.50
2023-04-11T10:01:32.735Z,6.13
2023-04-11T10:04:01.526Z,8.52
2023-04-11T10:06:50.439Z,5.75
2023-04-11T10:09:20.563Z,11.82
2023-04-11T10:11:47.655Z,7.45
2023-04-11T10:14:36.884Z,6.53
2023-04-11T10:17:14.907Z,7.53
2023-04-11T10:19:44.284Z,8.05
2023-04-11T10:22:31.730Z,5.82
2023-04-11T10:25:21.647Z,6.70
2023-04-11T10:27:53.406Z,7.43
2023-04-11T10:30:39.788Z,6.32
2023-04-11T10:33:11.823Z,4.88
2023-04-11T10:36:06.173Z,7.63
2023-04-11T10:38:51.437Z,8.48
2023-04-11T10:41:36.358Z,8.50
2023-04-11T10:44:35.313Z,12.07
2023-04-11T10:47:02.786Z,8.40
2023-04-11T10:49:35.564Z,11.85
2023-04-11T10:52:22.964Z,9.10
2023-04-11T10:54:54.786Z,7.43
2023-04-11T10:57:23.098Z,9.38
2023-04-11T10:59:50.513Z,9.98
2023-04-11T11:02:21.954Z,6.82
2023-04-11T11:04:49.708Z,5.90
2023-04-11T11:07:17.462Z,5.32
2023-04-11T11:09:51.378Z,4.72
2023-04-11T11:12:18.934Z,7.55
2023-04-11T11:14:47.256Z,5.85
2023-04-11T11:17:16.364Z,6.78
2023-04-11T11:19:45.383Z,8.13
2023-04-11T11:22:17.065Z,4.68
2023-04-11T11:24:46.246Z,5.43
2023-04-11T11:27:23.126Z,8.02
2023-04-11T11:29:52.812Z,7.72
2023-04-11T11:32:28.163Z,7.90
2023-04-11T11:37:23.206Z,3.25
2023-04-11T11:39:50.803Z,5.78
2023-04-11T11:42:18.575Z,6.93
2023-04-11T11:44:45.833Z,6.70
2023-04-11T11:47:16.815Z,4.28
2023-04-11T11:49:54.301Z,3.72
2023-04-11T11:52:42.491Z,4.63
2023-04-11T11:55:31.212Z,4.68
2023-04-11T11:58:02.829Z,12.50
2023-04-11T12:00:40.528Z,7.43
2023-04-11T12:03:10.937Z,8.15
2023-04-11T12:05:38.811Z,5.43
2023-04-11T12:08:07.772Z,22.42
2023-04-11T12:10:41.446Z,8.00
2023-04-11T12:13:17.824Z,7.00
2023-04-11T12:15:51.461Z,5.78
2023-04-11T12:18:26.248Z,5.20
2023-04-11T12:20:53.876Z,10.15
2023-04-11T12:23:22.659Z,8.57
2023-04-11T12:25:50.097Z,7.97
2023-04-11T12:28:17.563Z,3.58
2023-04-11T12:30:44.642Z,6.70
2023-04-11T12:33:12.014Z,7.85
2023-04-11T12:35:39.481Z,7.45
2023-04-11T12:38:07.809Z,5.80
2023-04-11T12:40:36.260Z,6.28
2023-04-11T12:43:03.619Z,5.72
2023-04-11T12:45:32.485Z,9.25
2023-04-11T12:48:02.971Z,4.18
2023-04-11T12:50:30.033Z,5.28
2023-04-11T12:52:57.349Z,5.88
2023-04-11T12:55:24.548Z,6.10
2023-04-11T12:57:51.979Z,9.40
2023-04-11T13:00:24.675Z,7.63
2023-04-11T13:05:22.576Z,11.95
2023-04-11T13:07:49.956Z,15.85
2023-04-11T13:10:17.235Z,16.70
2023-04-11T13:12:45.773Z,15.43
2023-04-11T13:15:14.336Z,7.55
2023-04-11T13:17:42.068Z,9.32
2023-04-11T13:20:12.984Z,6.10
2023-04-11T13:22:41.978Z,5.75
2023-04-11T13:25:10.260Z,13.80
2023-04-11T13:27:39.664Z,6.40
2023-04-11T13:30:08.083Z,17.50
2023-04-11T13:32:35.935Z,20.83
2023-04-11T13:35:03.945Z,5.63
2023-04-11T13:37:31.552Z,7.90
2023-04-11T13:39:59.793Z,5.38
2023-04-11T13:42:27.579Z,6.35
2023-04-11T13:44:56.581Z,4.72
2023-04-11T13:47:23.964Z,4.13
2023-04-11T13:49:50.976Z,6.28
2023-04-11T13:52:18.755Z,6.50
2023-04-11T13:54:45.978Z,4.72
2023-04-11T13:57:13.231Z,4.93
2023-04-11T13:59:40.379Z,9.32
2023-04-11T14:02:08.384Z,5.32
2023-04-11T14:04:35.766Z,6.53
2023-04-11T14:07:03.090Z,6.65
2023-04-11T14:09:31.137Z,5.88
2023-04-11T14:11:58.569Z,6.05
2023-04-11T14:14:26.655Z,6.28
2023-04-11T14:16:54.281Z,9.57
2023-04-11T14:19:22.746Z,6.18
2023-04-11T14:21:53.852Z,8.25
2023-04-11T14:24:22.347Z,8.77
2023-04-11T14:26:50.413Z,7.53
2023-04-11T14:29:18.056Z,7.18
2023-04-11T14:31:49.016Z,6.30
2023-04-11T14:34:18.483Z,5.90
2023-04-11T14:36:46.545Z,5.60
2023-04-11T14:39:13.595Z,3.22
2023-04-11T14:41:40.995Z,4.70
2023-04-11T14:44:08.023Z,11.00
2023-04-11T14:46:35.765Z,5.95
2023-04-11T14:49:03.442Z,5.53
2023-04-11T14:51:31.252Z,10.20
2023-04-11T14:53:59.881Z,4.90
2023-04-11T14:56:27.523Z,4.40
2023-04-11T14:58:55.016Z,6.72
2023-04-11T15:01:22.532Z,6.72
2023-04-11T15:03:50.013Z,6.75
2023-04-11T15:06:17.624Z,6.47
2023-04-11T15:08:47.060Z,5.63
2023-04-11T15:11:14.445Z,7.20
2023-04-11T15:13:41.541Z,6.13
2023-04-11T15:16:09.060Z,6.22
2023-04-11T15:18:36.189Z,7.43
2023-04-11T15:21:03.761Z,6.82
2023-04-11T15:23:31.186Z,8.38
2023-04-11T15:26:00.162Z,4.90
2023-04-11T15:28:31.870Z,6.50
2023-04-11T15:31:00.184Z,8.77
2023-04-11T15:33:27.705Z,8.25
2023-04-11T15:35:55.400Z,6.93
2023-04-11T15:38:23.199Z,8.98
2023-04-11T15:40:55.197Z,12.70
2023-04-11T15:43:23.268Z,23.48
2023-04-11T15:45:52.463Z,7.85
2023-04-11T15:48:20.784Z,14.07
2023-04-11T15:50:51.200Z,21.42
2023-04-11T15:53:19.902Z,15.27
2023-04-11T15:55:47.645Z,36.90
2023-04-11T15:58:14.997Z,15.80
2023-04-11T16:00:43.786Z,16.10
2023-04-11T16:03:11.287Z,19.77
2023-04-11T16:05:43.328Z,7.70
2023-04-11T16:08:10.530Z,6.90
2023-04-11T16:10:37.898Z,11.27
2023-04-11T16:13:04.960Z,12.70
2023-04-11T16:15:35.603Z,12.27
2023-04-11T16:18:03.024Z,11.48
2023-04-11T16:20:33.770Z,8.80
2023-04-11T16:23:03.277Z,11.10
2023-04-11T16:25:30.941Z,10.40
2023-04-11T16:27:58.021Z,9.02
2023-04-11T16:30:27.750Z,9.88
2023-04-11T16:32:57.881Z,10.50
2023-04-11T16:35:25.939Z,13.88
2023-04-11T16:37:53.328Z,11.85
2023-04-11T16:40:20.866Z,10.88
2023-04-11T16:42:48.627Z,10.45
2023-04-11T16:45:16.441Z,9.85
2023-04-11T16:47:43.840Z,10.90
2023-04-11T16:50:11.315Z,12.77
2023-04-11T16:52:38.340Z,15.50
2023-04-11T16:55:06.220Z,19.30
2023-04-11T16:57:33.821Z,31.70
2023-04-11T17:00:17.080Z,22.33
2023-04-11T17:02:44.391Z,17.83
2023-04-11T17:05:13.182Z,36.22
2023-04-11T17:07:40.691Z,31.50
2023-04-11T17:10:08.619Z,21.55
2023-04-11T17:12:41.731Z,19.60
2023-04-11T17:15:09.542Z,17.02
2023-04-11T17:17:36.877Z,11.77
2023-04-11T17:20:09.548Z,18.85
2023-04-11T17:22:37.027Z,9.93
2023-04-11T17:25:04.809Z,23.52
2023-04-11T17:27:33.045Z,18.88
2023-04-11T17:30:04.206Z,12.90
2023-04-11T17:32:31.549Z,21.63
2023-04-11T17:34:59.029Z,28.73
2023-04-11T17:37:26.914Z,21.42
2023-04-11T17:39:54.585Z,19.40
2023-04-11T17:42:21.670Z,21.73
2023-04-11T17:44:50.208Z,16.67
2023-04-11T17:47:17.612Z,32.30
2023-04-11T17:49:46.057Z,61.92
2023-04-11T17:52:13.153Z,27.13
2023-04-11T17:54:40.647Z,27.77
2023-04-11T17:57:08.298Z,35.55
2023-04-11T17:59:36.971Z,35.22
2023-04-11T18:02:05.043Z,37.72
2023-04-11T18:04:34.065Z,49.92
2023-04-11T18:07:01.403Z,77.22
2023-04-11T18:09:31.874Z,76.43
2023-04-11T18:11:59.611Z,48.47
2023-04-11T18:14:27.417Z,75.22
2023-04-11T18:16:54.735Z,92.53
2023-04-11T18:19:22.350Z,35.83
2023-04-11T18:21:52.312Z,60.20
2023-04-11T18:24:20.324Z,44.72
2023-04-11T18:26:48.160Z,22.52
2023-04-11T18:29:16.031Z,33.00
2023-04-11T18:31:43.564Z,25.00
2023-04-11T18:34:11.621Z,17.58
2023-04-11T18:36:41.075Z,13.80
2023-04-11T18:39:09.033Z,19.23
2023-04-11T18:41:36.277Z,14.93
2023-04-11T18:44:05.535Z,15.30
2023-04-11T18:46:34.215Z,9.82
2023-04-11T18:49:07.827Z,12.52
2023-04-11T18:51:35.637Z,15.43
2023-04-11T18:54:04.528Z,18.92
2023-04-11T18:56:31.908Z,24.40
2023-04-11T18:59:05.880Z,21.05
2023-04-11T19:01:36.441Z,34.03
2023-04-11T19:04:05.424Z,28.70
2023-04-11T19:06:32.782Z,23.13
2023-04-11T19:09:00.697Z,27.83
2023-04-11T19:11:28.097Z,28.60
2023-04-11T19:13:59.901Z,26.23
2023-04-11T19:16:27.210Z,28.00
2023-04-11T19:18:55.195Z,25.40
2023-04-11T19:21:22.402Z,24.55
2023-04-11T19:23:50.175Z,35.15
2023-04-11T19:26:18.278Z,69.82
2023-04-11T19:28:48.286Z,45.60
2023-04-11T19:31:15.366Z,33.53
2023-04-11T19:33:43.036Z,29.58
2023-04-11T19:36:10.408Z,25.00
2023-04-11T19:38:39.605Z,22.25
2023-04-11T19:41:14.357Z,20.30
2023-04-11T19:43:42.774Z,22.38
2023-04-11T19:46:13.928Z,20.65
2023-04-11T19:48:42.792Z,22.88
2023-04-11T19:51:11.096Z,28.88
2023-04-11T19:53:39.033Z,46.83
2023-04-11T19:56:08.053Z,50.40
2023-04-11T19:58:35.784Z,34.60
2023-04-11T20:01:04.385Z,50.22
2023-04-11T20:03:32.250Z,33.90
2023-04-11T20:05:59.972Z,38.35
2023-04-11T20:08:27.776Z,38.03
2023-04-11T20:10:54.950Z,38.50
2023-04-11T20:13:22.384Z,33.03
2023-04-11T20:15:49.475Z,50.17
2023-04-11T20:18:16.889Z,62.63
2023-04-11T20:20:45.459Z,38.00
2023-04-11T20:23:15.605Z,33.70
2023-04-11T20:25:43.415Z,50.58
2023-04-11T20:28:11.097Z,32.83
2023-04-11T20:33:06.609Z,69.57
2023-04-11T20:35:34.329Z,75.78
2023-04-11T20:38:02.012Z,41.83
2023-04-11T20:40:29.123Z,38.90
2023-04-11T20:42:57.301Z,39.92
2023-04-11T20:45:27.740Z,40.13
2023-04-11T20:47:56.275Z,48.83
2023-04-11T20:50:23.443Z,49.15
2023-04-11T20:52:54.088Z,29.00
2023-04-11T20:55:26.549Z,24.85
2023-04-11T20:57:53.843Z,19.88
2023-04-11T21:00:21.009Z,16.08
2023-04-11T21:02:50.352Z,17.98
2023-04-11T21:05:20.500Z,33.28
2023-04-11T21:07:55.404Z,47.33
2023-04-11T21:10:22.598Z,57.95
2023-04-11T21:12:53.959Z,35.15
2023-04-11T21:15:21.833Z,26.40
2023-04-11T21:17:50.189Z,58.65
2023-04-11T21:20:20.629Z,40.40
2023-04-11T21:22:53.027Z,35.15
2023-04-11T21:25:20.366Z,40.75
2023-04-11T21:27:48.110Z,42.55
2023-04-11T21:30:17.489Z,37.72
2023-04-11T21:32:44.884Z,18.13
2023-04-11T21:35:13.581Z,38.42
2023-04-11T21:37:41.017Z,37.05
2023-04-11T21:40:08.731Z,44.67
2023-04-11T21:42:36.436Z,62.03
2023-04-11T21:45:03.658Z,48.40
2023-04-11T21:47:30.903Z,32.53
2023-04-11T21:49:58.382Z,35.28
2023-04-11T21:52:25.995Z,29.58
2023-04-11T21:54:53.017Z,36.33
2023-04-11T21:57:20.297Z,15.93
2023-04-11T21:59:50.335Z,13.52
2023-04-11T22:02:17.850Z,21.35
2023-04-11T22:05:01.269Z,25.75
2023-04-11T22:07:40.753Z,23.48
2023-04-11T22:10:12.010Z,27.45
2023-04-11T22:12:40.627Z,20.23
2023-04-11T22:15:08.334Z,27.38
2023-04-11T22:17:37.333Z,23.92
2023-04-11T22:20:06.808Z,23.70
2023-04-11T22:22:35.147Z,23.35
2023-04-11T22:25:05.541Z,27.63
2023-04-11T22:27:34.589Z,28.85
2023-04-11T22:30:02.410Z,32.50
2023-04-11T22:32:30.537Z,28.42
2023-04-11T22:34:58.144Z,26.42
2023-04-11T22:37:26.688Z,33.72
2023-04-11T22:39:53.700Z,26.73
2023-04-11T22:42:20.985Z,29.67
2023-04-11T22:44:48.010Z,30.60
2023-04-11T22:47:16.490Z,28.50
2023-04-11T22:49:45.163Z,27.33
2023-04-11T22:52:19.018Z,37.05
2023-04-11T22:54:47.017Z,32.28
2023-04-11T22:57:14.295Z,34.75
2023-04-11T22:59:41.320Z,28.45
2023-04-11T23:02:09.233Z,30.77
2023-04-11T23:04:36.524Z,24.73
2023-04-11T23:07:05.095Z,26.40
2023-04-11T23:09:32.288Z,27.67
2023-04-11T23:11:59.628Z,35.90
2023-04-11T23:14:31.264Z,30.88
2023-04-11T23:16:58.788Z,22.77
2023-04-11T23:19:27.312Z,27.73
2023-04-11T23:21:54.549Z,23.50
2023-04-11T23:24:22.012Z,19.90
2023-04-11T23:26:49.060Z,16.40
2023-04-11T23:29:16.293Z,18.20
2023-04-11T23:31:43.287Z,19.67
2023-04-11T23:34:10.502Z,16.30
2023-04-11T23:36:37.809Z,17.80
2023-04-11T23:39:05.557Z,18.23
2023-04-11T23:41:32.585Z,29.75
2023-04-11T23:44:00.058Z,29.38
2023-04-11T23:46:27.829Z,19.98
2023-04-11T23:48:55.417Z,18.85
2023-04-11T23:51:22.409Z,16.30
2023-04-11T23:53:50.260Z,29.30
2023-04-11T23:56:18.085Z,19.85
2023-04-11T23:58:45.383Z,20.38
